Main page
METAR-TAF:

METAR-TAF

Airports :

Ängelholm–Helsingborg Airport

Helsingborg, Sweden

latitude: 56-17-46N, longitude: 012-50-50E, elevation: 21 m

Current weather observation

The report was made 40 minutes ago, at 12:20 UTC
Wind 6 kt from the Southwest
Temperature 20°C
Humidity 53%
Pressure 1016 hPa
Visibility 10 km or more

METAR: ESTA 211220Z AUTO 22006KT 9999 FEW150/// SCT200/// 20/10 Q1016

Time: 15:00 (13:00 UTC)

Forecast

The report was made 7 hours and 57 minutes ago, at 05:03 UTC
Forecast valid from 21 at 06 UTC to 21 at 10 UTC
Wind 5 kt from the Southeast
Visibility 10 km or more
no clouds below 1500 m and no cumulonimbus
Temporary
from 21 at 06 UTC to 21 at 08 UTC
Broken clouds at a height of 1200 ft

TAF: ESTA 210503Z 2106/2110 13005KT CAVOK TEMPO 2106/2108 BKN012

Weather observations and forecasts of more than 4000 airports (METAR and TAF reports).

The available stations are represented by yellow and red dots on the map.

Hover mouse over dot to see the name of the station.

Then click to see weather observations and forecasts.

To change the map : click on the green buttons with a black cross to zoom in, on the green button with a dash to zoom out, or on the green arrows for adjacent maps.


METAR-TAF: